Strona główna
METAR-TAF:

METAR-TAF

Lotnisko :

Indiana County Airport (Jimmy Stewart Field)

Indiana, Pensylwania, Stany Zjednoczone

Szerokość geograficzna: 40-38N, Długość geograficzna: 079-06W, wysokość: 429 m

Aktualna obserwacja pogody

Raport powstał 23 minut temu, godzina 08:35 UTC
Wiatr 11 kt od zachód w porywach dochodzący do 18 kt
Temperatura 3°C
Wilgotność 93%
Ciśnienie 1007 hPa
Widzialność: 6.4 km
Przerywane chmury na wysokości 1200 ft
Zachmurzenie całkowite na wysokości 1700 ft
zamglenie

METAR: KIDI 150835Z AUTO 27011G18KT 4SM BR BKN012 OVC017 03/02 A2973 RMK A01

czas: 03:58 (08:58 UTC)


TAF: brakujący

Obserwacja i prognoza pogody dla ponad 4000 lotnisk (raport METAR i TAF).

Dostępne stacje oznaczono żółtymi i czerwonymi punktami na mapie.

Najedź kursorem aby zobaczyć nazwę stacji.

Kliknij aby zobaczyć obserwacje i prognozy pogody.

Aby zmienić mapę: kliknij na zielony przycisk z czarnym krzyżykiem, aby powiększyć; na zielony przycisk z myślnikiem, aby pomniejszyć; na zielone strzałki, aby przejść do map sąsiednich.


METAR-TAF: